sensor_id;sensor_type;location;lat;lon;timestamp;P1;durP1;ratioP1;P2;durP2;ratioP2
76846;SDS011;65813;49.546;8.644;2024-03-23T04:48:28;13.20;;;6.75;;
76846;SDS011;65813;49.546;8.644;2024-03-23T04:52:29;14.20;;;6.13;;
76846;SDS011;65813;49.546;8.644;2024-03-23T04:56:29;11.27;;;6.35;;
76846;SDS011;65813;49.546;8.644;2024-03-23T05:00:31;10.75;;;5.80;;
76846;SDS011;65813;49.546;8.644;2024-03-23T05:04:31;7.70;;;4.10;;
76846;SDS011;65813;49.546;8.644;2024-03-23T05:08:32;9.35;;;3.83;;
76846;SDS011;65813;49.546;8.644;2024-03-23T05:12:32;8.23;;;4.00;;
76846;SDS011;65813;49.546;8.644;2024-03-23T05:16:33;7.00;;;3.23;;
76846;SDS011;65813;49.546;8.644;2024-03-23T05:20:33;6.40;;;2.53;;
76846;SDS011;65813;49.546;8.644;2024-03-23T05:24:34;6.37;;;3.67;;
76846;SDS011;65813;49.546;8.644;2024-03-23T05:28:34;8.13;;;3.53;;
76846;SDS011;65813;49.546;8.644;2024-03-23T05:32:35;5.97;;;3.00;;
76846;SDS011;65813;49.546;8.644;2024-03-23T05:36:35;6.07;;;2.83;;
76846;SDS011;65813;49.546;8.644;2024-03-23T05:40:36;5.90;;;3.05;;
76846;SDS011;65813;49.546;8.644;2024-03-23T05:44:40;7.38;;;2.72;;
76846;SDS011;65813;49.546;8.644;2024-03-23T05:48:40;4.10;;;1.87;;
76846;SDS011;65813;49.546;8.644;2024-03-23T05:52:40;4.43;;;2.50;;
76846;SDS011;65813;49.546;8.644;2024-03-23T05:56:42;4.43;;;2.05;;
76846;SDS011;65813;49.546;8.644;2024-03-23T06:00:43;4.00;;;2.13;;
76846;SDS011;65813;49.546;8.644;2024-03-23T06:04:45;4.22;;;2.00;;
76846;SDS011;65813;49.546;8.644;2024-03-23T06:08:45;4.63;;;2.20;;
76846;SDS011;65813;49.546;8.644;2024-03-23T06:12:46;3.77;;;1.93;;
76846;SDS011;65813;49.546;8.644;2024-03-23T06:16:46;3.58;;;1.70;;
76846;SDS011;65813;49.546;8.644;2024-03-23T06:20:47;3.97;;;1.80;;
76846;SDS011;65813;49.546;8.644;2024-03-23T06:24:47;4.07;;;1.53;;
76846;SDS011;65813;49.546;8.644;2024-03-23T06:28:48;3.03;;;1.43;;
76846;SDS011;65813;49.546;8.644;2024-03-23T06:32:48;3.57;;;1.50;;
76846;SDS011;65813;49.546;8.644;2024-03-23T06:36:48;3.20;;;1.57;;
76846;SDS011;65813;49.546;8.644;2024-03-23T06:40:49;3.50;;;1.55;;
76846;SDS011;65813;49.546;8.644;2024-03-23T06:44:50;3.33;;;1.30;;
76846;SDS011;65813;49.546;8.644;2024-03-23T06:48:51;3.13;;;1.20;;
76846;SDS011;65813;49.546;8.644;2024-03-23T06:52:51;3.20;;;0.80;;
76846;SDS011;65813;49.546;8.644;2024-03-23T06:56:51;1.30;;;0.70;;
76846;SDS011;65813;49.546;8.644;2024-03-23T07:00:51;1.60;;;0.70;;
76846;SDS011;65813;49.546;8.644;2024-03-23T07:04:52;1.00;;;0.40;;
76846;SDS011;65813;49.546;8.644;2024-03-23T07:08:52;0.87;;;0.43;;
76846;SDS011;65813;49.546;8.644;2024-03-23T07:12:53;0.65;;;0.60;;
76846;SDS011;65813;49.546;8.644;2024-03-23T07:16:53;0.47;;;0.40;;
76846;SDS011;65813;49.546;8.644;2024-03-23T07:20:56;0.47;;;0.47;;
76846;SDS011;65813;49.546;8.644;2024-03-23T07:25:00;2.28;;;0.52;;
76846;SDS011;65813;49.546;8.644;2024-03-23T07:29:01;0.57;;;0.50;;
76846;SDS011;65813;49.546;8.644;2024-03-23T07:33:02;0.50;;;0.50;;
76846;SDS011;65813;49.546;8.644;2024-03-23T07:37:02;1.83;;;0.85;;
76846;SDS011;65813;49.546;8.644;2024-03-23T07:41:03;2.10;;;0.75;;
76846;SDS011;65813;49.546;8.644;2024-03-23T07:45:04;2.03;;;1.02;;
76846;SDS011;65813;49.546;8.644;2024-03-23T07:49:05;4.25;;;1.25;;
76846;SDS011;65813;49.546;8.644;2024-03-23T07:53:05;4.07;;;1.20;;
76846;SDS011;65813;49.546;8.644;2024-03-23T07:57:06;2.50;;;1.10;;
76846;SDS011;65813;49.546;8.644;2024-03-23T08:01:10;2.90;;;1.10;;
76846;SDS011;65813;49.546;8.644;2024-03-23T08:05:12;3.08;;;1.20;;
76846;SDS011;65813;49.546;8.644;2024-03-23T08:09:12;2.17;;;1.07;;
76846;SDS011;65813;49.546;8.644;2024-03-23T08:13:12;2.77;;;1.23;;
76846;SDS011;65813;49.546;8.644;2024-03-23T08:17:13;2.50;;;1.13;;
76846;SDS011;65813;49.546;8.644;2024-03-23T08:21:13;3.87;;;1.37;;
76846;SDS011;65813;49.546;8.644;2024-03-23T08:25:13;3.05;;;1.40;;
76846;SDS011;65813;49.546;8.644;2024-03-23T08:29:14;2.33;;;1.10;;
76846;SDS011;65813;49.546;8.644;2024-03-23T08:33:14;3.40;;;1.33;;
76846;SDS011;65813;49.546;8.644;2024-03-23T08:37:15;3.50;;;1.70;;
76846;SDS011;65813;49.546;8.644;2024-03-23T08:41:15;2.83;;;1.33;;
76846;SDS011;65813;49.546;8.644;2024-03-23T08:45:16;3.67;;;1.80;;
76846;SDS011;65813;49.546;8.644;2024-03-23T08:49:16;3.25;;;1.60;;
76846;SDS011;65813;49.546;8.644;2024-03-23T08:53:18;3.38;;;1.45;;
76846;SDS011;65813;49.546;8.644;2024-03-23T08:57:18;5.70;;;1.88;;
76846;SDS011;65813;49.546;8.644;2024-03-23T09:01:19;5.20;;;1.80;;
76846;SDS011;65813;49.546;8.644;2024-03-23T09:05:19;5.20;;;2.10;;
76846;SDS011;65813;49.546;8.644;2024-03-23T09:09:19;5.90;;;2.10;;
76846;SDS011;65813;49.546;8.644;2024-03-23T09:13:20;7.17;;;2.17;;
76846;SDS011;65813;49.546;8.644;2024-03-23T09:17:20;7.17;;;1.80;;
76846;SDS011;65813;49.546;8.644;2024-03-23T09:21:20;5.70;;;1.50;;
76846;SDS011;65813;49.546;8.644;2024-03-23T09:25:20;4.93;;;1.83;;
76846;SDS011;65813;49.546;8.644;2024-03-23T09:29:21;4.77;;;1.80;;
76846;SDS011;65813;49.546;8.644;2024-03-23T09:33:21;8.50;;;2.50;;
76846;SDS011;65813;49.546;8.644;2024-03-23T09:37:21;5.77;;;2.13;;
76846;SDS011;65813;49.546;8.644;2024-03-23T09:41:22;9.87;;;2.40;;
76846;SDS011;65813;49.546;8.644;2024-03-23T09:45:26;6.97;;;2.40;;
76846;SDS011;65813;49.546;8.644;2024-03-23T09:49:27;6.75;;;1.95;;
76846;SDS011;65813;49.546;8.644;2024-03-23T09:53:27;9.47;;;2.20;;
76846;SDS011;65813;49.546;8.644;2024-03-23T09:57:28;5.57;;;1.70;;
76846;SDS011;65813;49.546;8.644;2024-03-23T10:01:31;5.60;;;1.80;;
76846;SDS011;65813;49.546;8.644;2024-03-23T10:05:32;5.93;;;1.90;;
76846;SDS011;65813;49.546;8.644;2024-03-23T10:09:35;8.00;;;2.03;;
76846;SDS011;65813;49.546;8.644;2024-03-23T10:13:36;4.20;;;1.60;;
76846;SDS011;65813;49.546;8.644;2024-03-23T10:17:38;3.92;;;1.80;;
76846;SDS011;65813;49.546;8.644;2024-03-23T10:21:39;5.73;;;1.80;;
76846;SDS011;65813;49.546;8.644;2024-03-23T10:25:39;4.20;;;1.87;;
76846;SDS011;65813;49.546;8.644;2024-03-23T10:29:39;6.83;;;1.70;;
76846;SDS011;65813;49.546;8.644;2024-03-23T10:33:44;5.17;;;1.43;;
76846;SDS011;65813;49.546;8.644;2024-03-23T10:37:45;6.60;;;1.77;;
76846;SDS011;65813;49.546;8.644;2024-03-23T10:41:52;3.97;;;1.42;;
76846;SDS011;65813;49.546;8.644;2024-03-23T10:45:55;6.30;;;1.50;;
76846;SDS011;65813;49.546;8.644;2024-03-23T10:49:56;6.40;;;1.87;;
76846;SDS011;65813;49.546;8.644;2024-03-23T10:53:56;5.23;;;1.20;;
76846;SDS011;65813;49.546;8.644;2024-03-23T10:57:57;6.75;;;1.70;;
76846;SDS011;65813;49.546;8.644;2024-03-23T11:01:59;5.35;;;1.30;;
76846;SDS011;65813;49.546;8.644;2024-03-23T11:06:06;3.92;;;1.30;;
76846;SDS011;65813;49.546;8.644;2024-03-23T11:10:24;3.38;;;1.40;;
76846;SDS011;65813;49.546;8.644;2024-03-23T11:14:29;5.68;;;1.40;;
76846;SDS011;65813;49.546;8.644;2024-03-23T11:18:32;3.90;;;1.30;;
76846;SDS011;65813;49.546;8.644;2024-03-23T11:22:45;4.43;;;1.60;;
76846;SDS011;65813;49.546;8.644;2024-03-23T11:26:51;6.28;;;1.25;;
76846;SDS011;65813;49.546;8.644;2024-03-23T11:30:52;7.85;;;1.60;;
76846;SDS011;65813;49.546;8.644;2024-03-23T11:34:52;4.10;;;1.53;;
76846;SDS011;65813;49.546;8.644;2024-03-23T11:38:52;3.70;;;1.40;;
76846;SDS011;65813;49.546;8.644;2024-03-23T11:42:56;3.20;;;1.33;;
76846;SDS011;65813;49.546;8.644;2024-03-23T11:47:08;3.22;;;0.93;;
76846;SDS011;65813;49.546;8.644;2024-03-23T11:51:11;3.25;;;1.20;;
76846;SDS011;65813;49.546;8.644;2024-03-23T11:55:12;3.43;;;1.40;;
76846;SDS011;65813;49.546;8.644;2024-03-23T11:59:12;4.23;;;1.50;;
76846;SDS011;65813;49.546;8.644;2024-03-23T12:03:29;8.20;;;2.70;;
76846;SDS011;65813;49.546;8.644;2024-03-23T12:07:32;3.47;;;1.60;;
76846;SDS011;65813;49.546;8.644;2024-03-23T12:11:32;4.37;;;1.40;;
76846;SDS011;65813;49.546;8.644;2024-03-23T12:15:32;6.03;;;1.70;;
76846;SDS011;65813;49.546;8.644;2024-03-23T12:19:33;2.38;;;1.10;;
76846;SDS011;65813;49.546;8.644;2024-03-23T12:23:33;3.33;;;1.20;;
76846;SDS011;65813;49.546;8.644;2024-03-23T12:27:34;3.00;;;1.17;;
76846;SDS011;65813;49.546;8.644;2024-03-23T12:31:34;4.03;;;1.30;;
76846;SDS011;65813;49.546;8.644;2024-03-23T12:35:35;5.90;;;1.67;;
76846;SDS011;65813;49.546;8.644;2024-03-23T12:39:35;6.60;;;1.93;;
76846;SDS011;65813;49.546;8.644;2024-03-23T12:43:36;6.75;;;1.98;;
76846;SDS011;65813;49.546;8.644;2024-03-23T12:47:37;7.07;;;2.55;;
76846;SDS011;65813;49.546;8.644;2024-03-23T12:51:38;8.23;;;2.37;;
76846;SDS011;65813;49.546;8.644;2024-03-23T12:55:38;5.05;;;2.25;;
76846;SDS011;65813;49.546;8.644;2024-03-23T12:59:39;4.30;;;1.80;;
76846;SDS011;65813;49.546;8.644;2024-03-23T13:03:39;6.30;;;1.80;;
76846;SDS011;65813;49.546;8.644;2024-03-23T13:07:41;5.20;;;1.75;;
76846;SDS011;65813;49.546;8.644;2024-03-23T13:11:41;3.67;;;1.93;;
76846;SDS011;65813;49.546;8.644;2024-03-23T13:15:41;3.50;;;0.97;;
76846;SDS011;65813;49.546;8.644;2024-03-23T13:19:42;2.13;;;0.70;;
76846;SDS011;65813;49.546;8.644;2024-03-23T13:23:42;0.97;;;0.60;;
76846;SDS011;65813;49.546;8.644;2024-03-23T13:27:45;1.35;;;0.80;;
76846;SDS011;65813;49.546;8.644;2024-03-23T13:31:46;1.00;;;0.33;;
76846;SDS011;65813;49.546;8.644;2024-03-23T13:35:53;1.35;;;0.60;;
76846;SDS011;65813;49.546;8.644;2024-03-23T13:39:54;1.45;;;0.85;;
76846;SDS011;65813;49.546;8.644;2024-03-23T13:43:54;2.17;;;0.80;;
76846;SDS011;65813;49.546;8.644;2024-03-23T13:47:55;2.83;;;1.20;;
76846;SDS011;65813;49.546;8.644;2024-03-23T13:51:56;2.53;;;0.80;;
76846;SDS011;65813;49.546;8.644;2024-03-23T13:55:58;1.88;;;0.75;;
76846;SDS011;65813;49.546;8.644;2024-03-23T13:59:58;2.60;;;0.90;;
76846;SDS011;65813;49.546;8.644;2024-03-23T14:03:58;1.80;;;0.80;;
76846;SDS011;65813;49.546;8.644;2024-03-23T14:07:59;5.40;;;2.00;;
76846;SDS011;65813;49.546;8.644;2024-03-23T14:11:59;2.70;;;1.00;;
76846;SDS011;65813;49.546;8.644;2024-03-23T14:16:00;2.92;;;1.05;;
76846;SDS011;65813;49.546;8.644;2024-03-23T14:20:01;2.08;;;0.82;;
76846;SDS011;65813;49.546;8.644;2024-03-23T14:24:02;2.28;;;1.08;;
76846;SDS011;65813;49.546;8.644;2024-03-23T14:28:02;2.38;;;1.20;;
76846;SDS011;65813;49.546;8.644;2024-03-23T14:32:03;2.30;;;1.08;;
76846;SDS011;65813;49.546;8.644;2024-03-23T14:36:04;1.77;;;0.93;;
76846;SDS011;65813;49.546;8.644;2024-03-23T14:40:05;1.95;;;0.90;;
76846;SDS011;65813;49.546;8.644;2024-03-23T14:44:06;1.85;;;1.02;;
76846;SDS011;65813;49.546;8.644;2024-03-23T14:48:06;2.73;;;0.80;;
76846;SDS011;65813;49.546;8.644;2024-03-23T14:52:07;2.67;;;1.10;;
76846;SDS011;65813;49.546;8.644;2024-03-23T14:56:09;4.72;;;1.17;;
76846;SDS011;65813;49.546;8.644;2024-03-23T15:00:15;1.85;;;0.63;;
76846;SDS011;65813;49.546;8.644;2024-03-23T15:04:16;2.70;;;1.00;;
76846;SDS011;65813;49.546;8.644;2024-03-23T15:08:16;1.17;;;0.57;;
76846;SDS011;65813;49.546;8.644;2024-03-23T15:12:17;2.83;;;1.20;;
76846;SDS011;65813;49.546;8.644;2024-03-23T15:16:17;2.07;;;0.70;;
76846;SDS011;65813;49.546;8.644;2024-03-23T15:20:20;1.85;;;0.90;;
76846;SDS011;65813;49.546;8.644;2024-03-23T15:24:20;1.43;;;0.80;;
76846;SDS011;65813;49.546;8.644;2024-03-23T15:28:21;3.78;;;0.70;;
76846;SDS011;65813;49.546;8.644;2024-03-23T15:32:23;1.83;;;0.90;;
76846;SDS011;65813;49.546;8.644;2024-03-23T15:36:23;4.70;;;0.80;;
76846;SDS011;65813;49.546;8.644;2024-03-23T15:40:23;1.23;;;0.70;;
76846;SDS011;65813;49.546;8.644;2024-03-23T15:44:24;1.33;;;0.60;;
76846;SDS011;65813;49.546;8.644;2024-03-23T15:48:33;3.43;;;0.90;;
76846;SDS011;65813;49.546;8.644;2024-03-23T15:52:35;0.88;;;0.60;;
76846;SDS011;65813;49.546;8.644;2024-03-23T15:56:42;2.33;;;0.77;;
76846;SDS011;65813;49.546;8.644;2024-03-23T16:04:59;1.98;;;0.82;;
76846;SDS011;65813;49.546;8.644;2024-03-23T16:09:02;3.50;;;1.48;;
76846;SDS011;65813;49.546;8.644;2024-03-23T16:13:03;4.20;;;1.20;;
76846;SDS011;65813;49.546;8.644;2024-03-23T16:17:03;3.00;;;0.98;;
76846;SDS011;65813;49.546;8.644;2024-03-23T16:21:04;2.60;;;1.00;;
76846;SDS011;65813;49.546;8.644;2024-03-23T16:25:05;1.70;;;0.70;;
76846;SDS011;65813;49.546;8.644;2024-03-23T16:29:09;2.47;;;0.90;;
76846;SDS011;65813;49.546;8.644;2024-03-23T16:33:10;5.20;;;2.42;;
76846;SDS011;65813;49.546;8.644;2024-03-23T16:37:10;4.60;;;2.10;;
76846;SDS011;65813;49.546;8.644;2024-03-23T16:41:11;4.00;;;1.30;;
76846;SDS011;65813;49.546;8.644;2024-03-23T16:45:18;1.73;;;0.90;;
76846;SDS011;65813;49.546;8.644;2024-03-23T16:49:18;0.97;;;0.50;;
76846;SDS011;65813;49.546;8.644;2024-03-23T16:53:19;0.73;;;0.63;;
76846;SDS011;65813;49.546;8.644;2024-03-23T16:57:19;1.50;;;0.80;;
76846;SDS011;65813;49.546;8.644;2024-03-23T17:01:19;1.77;;;0.63;;
76846;SDS011;65813;49.546;8.644;2024-03-23T17:05:20;1.63;;;0.77;;
76846;SDS011;65813;49.546;8.644;2024-03-23T17:09:22;2.38;;;0.80;;
76846;SDS011;65813;49.546;8.644;2024-03-23T17:13:23;2.47;;;0.93;;
76846;SDS011;65813;49.546;8.644;2024-03-23T17:17:23;3.17;;;1.13;;
76846;SDS011;65813;49.546;8.644;2024-03-23T17:21:23;3.77;;;0.83;;
76846;SDS011;65813;49.546;8.644;2024-03-23T17:25:23;1.93;;;0.87;;
76846;SDS011;65813;49.546;8.644;2024-03-23T17:29:24;2.80;;;0.90;;
76846;SDS011;65813;49.546;8.644;2024-03-23T17:33:24;2.07;;;0.90;;
76846;SDS011;65813;49.546;8.644;2024-03-23T17:37:25;1.50;;;0.70;;
76846;SDS011;65813;49.546;8.644;2024-03-23T17:41:25;2.53;;;0.70;;
76846;SDS011;65813;49.546;8.644;2024-03-23T17:45:29;1.33;;;0.73;;
76846;SDS011;65813;49.546;8.644;2024-03-23T17:49:29;1.85;;;0.73;;
76846;SDS011;65813;49.546;8.644;2024-03-23T17:53:29;0.97;;;0.60;;
76846;SDS011;65813;49.546;8.644;2024-03-23T17:57:30;1.63;;;0.73;;
76846;SDS011;65813;49.546;8.644;2024-03-23T18:01:30;1.53;;;0.80;;
76846;SDS011;65813;49.546;8.644;2024-03-23T18:05:31;1.92;;;0.70;;
76846;SDS011;65813;49.546;8.644;2024-03-23T18:09:31;1.55;;;0.73;;
76846;SDS011;65813;49.546;8.644;2024-03-23T18:13:31;5.50;;;1.80;;
76846;SDS011;65813;49.546;8.644;2024-03-23T18:17:32;2.50;;;1.00;;
76846;SDS011;65813;49.546;8.644;2024-03-23T18:21:34;2.78;;;1.20;;
76846;SDS011;65813;49.546;8.644;2024-03-23T18:25:34;3.30;;;1.20;;
76846;SDS011;65813;49.546;8.644;2024-03-23T18:29:35;3.83;;;1.33;;
76846;SDS011;65813;49.546;8.644;2024-03-23T18:33:36;3.67;;;1.00;;
76846;SDS011;65813;49.546;8.644;2024-03-23T18:37:41;1.52;;;0.75;;
76846;SDS011;65813;49.546;8.644;2024-03-23T18:41:41;2.20;;;0.90;;
76846;SDS011;65813;49.546;8.644;2024-03-23T18:45:45;3.00;;;1.30;;
76846;SDS011;65813;49.546;8.644;2024-03-23T18:49:46;3.88;;;1.17;;
76846;SDS011;65813;49.546;8.644;2024-03-23T18:53:46;4.10;;;1.47;;
76846;SDS011;65813;49.546;8.644;2024-03-23T18:57:47;3.58;;;0.98;;
76846;SDS011;65813;49.546;8.644;2024-03-23T19:01:48;5.63;;;1.23;;
76846;SDS011;65813;49.546;8.644;2024-03-23T19:05:54;3.10;;;0.97;;
76846;SDS011;65813;49.546;8.644;2024-03-23T19:09:59;6.25;;;1.10;;
76846;SDS011;65813;49.546;8.644;2024-03-23T19:13:59;1.50;;;0.80;;
76846;SDS011;65813;49.546;8.644;2024-03-23T19:18:00;0.95;;;0.73;;
76846;SDS011;65813;49.546;8.644;2024-03-23T19:22:01;1.95;;;1.10;;
76846;SDS011;65813;49.546;8.644;2024-03-23T19:26:01;2.03;;;0.63;;
76846;SDS011;65813;49.546;8.644;2024-03-23T19:30:03;1.52;;;0.82;;
76846;SDS011;65813;49.546;8.644;2024-03-23T19:34:04;2.30;;;0.85;;
76846;SDS011;65813;49.546;8.644;2024-03-23T19:38:04;2.00;;;1.00;;
76846;SDS011;65813;49.546;8.644;2024-03-23T19:42:04;2.60;;;0.97;;
76846;SDS011;65813;49.546;8.644;2024-03-23T19:46:05;4.00;;;1.75;;
76846;SDS011;65813;49.546;8.644;2024-03-23T19:50:06;3.30;;;1.73;;
76846;SDS011;65813;49.546;8.644;2024-03-23T19:54:10;4.25;;;2.08;;
76846;SDS011;65813;49.546;8.644;2024-03-23T19:58:10;4.53;;;1.48;;
76846;SDS011;65813;49.546;8.644;2024-03-23T20:02:11;3.90;;;1.80;;
76846;SDS011;65813;49.546;8.644;2024-03-23T20:06:14;4.00;;;1.57;;
76846;SDS011;65813;49.546;8.644;2024-03-23T20:10:15;5.93;;;1.90;;
76846;SDS011;65813;49.546;8.644;2024-03-23T20:14:15;3.80;;;1.63;;
76846;SDS011;65813;49.546;8.644;2024-03-23T20:18:16;3.70;;;1.83;;
76846;SDS011;65813;49.546;8.644;2024-03-23T20:22:16;3.97;;;1.93;;
76846;SDS011;65813;49.546;8.644;2024-03-23T20:26:17;4.83;;;1.93;;
76846;SDS011;65813;49.546;8.644;2024-03-23T20:30:17;3.42;;;1.27;;
76846;SDS011;65813;49.546;8.644;2024-03-23T20:34:18;4.00;;;1.75;;
76846;SDS011;65813;49.546;8.644;2024-03-23T20:38:21;2.45;;;1.15;;
76846;SDS011;65813;49.546;8.644;2024-03-23T20:42:22;2.40;;;1.27;;
76846;SDS011;65813;49.546;8.644;2024-03-23T20:46:22;3.73;;;1.20;;
76846;SDS011;65813;49.546;8.644;2024-03-23T20:50:23;2.58;;;1.30;;
76846;SDS011;65813;49.546;8.644;2024-03-23T20:54:24;3.28;;;1.48;;
76846;SDS011;65813;49.546;8.644;2024-03-23T20:58:25;4.55;;;1.55;;
76846;SDS011;65813;49.546;8.644;2024-03-23T21:02:27;4.93;;;1.33;;
76846;SDS011;65813;49.546;8.644;2024-03-23T21:06:27;2.97;;;1.20;;
76846;SDS011;65813;49.546;8.644;2024-03-23T21:10:27;3.00;;;1.13;;
76846;SDS011;65813;49.546;8.644;2024-03-23T21:14:28;4.13;;;1.50;;
76846;SDS011;65813;49.546;8.644;2024-03-23T21:18:28;4.17;;;1.60;;
76846;SDS011;65813;49.546;8.644;2024-03-23T21:22:29;2.97;;;1.48;;
76846;SDS011;65813;49.546;8.644;2024-03-23T21:26:31;4.20;;;1.65;;
76846;SDS011;65813;49.546;8.644;2024-03-23T21:30:32;3.58;;;1.50;;
76846;SDS011;65813;49.546;8.644;2024-03-23T21:34:32;2.00;;;1.13;;
76846;SDS011;65813;49.546;8.644;2024-03-23T21:38:32;2.80;;;1.50;;
76846;SDS011;65813;49.546;8.644;2024-03-23T21:42:33;3.45;;;1.35;;
76846;SDS011;65813;49.546;8.644;2024-03-23T21:46:33;4.07;;;1.30;;
76846;SDS011;65813;49.546;8.644;2024-03-23T21:50:33;2.13;;;0.90;;
76846;SDS011;65813;49.546;8.644;2024-03-23T21:54:34;3.47;;;1.23;;
76846;SDS011;65813;49.546;8.644;2024-03-23T21:58:34;1.80;;;1.08;;
76846;SDS011;65813;49.546;8.644;2024-03-23T22:02:35;3.40;;;1.02;;
76846;SDS011;65813;49.546;8.644;2024-03-23T22:06:35;2.10;;;1.30;;
76846;SDS011;65813;49.546;8.644;2024-03-23T22:10:37;3.92;;;1.23;;
76846;SDS011;65813;49.546;8.644;2024-03-23T22:14:42;3.72;;;1.30;;
76846;SDS011;65813;49.546;8.644;2024-03-23T22:18:42;3.83;;;1.40;;
